This is the latest recevied weather packets stored in our database for station/object OK1LPD-6. If no packets are shown the sender has not sent any weather packets the latest 10 day(s).
| Time | Temp. | Humidity | Pressure | Rain* | Wind** | Luminosity | Snow |
|---|---|---|---|---|---|---|---|
| 1778156716 | 20° C | 44% | 1012.1 hPa | 0 mm | - | - | - |
| 1778156139 | 18.89° C | 47% | 1012.3 hPa | 0 mm | - | - | - |
| 1778155517 | 18.33° C | 50% | 1012.1 hPa | 0 mm | - | - | - |
| 1778154916 | 17.78° C | 49% | 1012.2 hPa | 0 mm | - | - | - |
| 1778154336 | 17.78° C | 49% | 1012.1 hPa | 0 mm | - | - | - |
| 1778153716 | 17.78° C | 50% | 1012.2 hPa | 0 mm | - | - | - |
| 1778153117 | 17.78° C | 50% | 1012.2 hPa | 0 mm | - | - | - |
| 1778152539 | 17.78° C | 49% | 1012 hPa | 0 mm | - | - | - |
| 1778151917 | 18.33° C | 48% | 1011.9 hPa | 0 mm | - | - | - |
| 1778151317 | 17.78° C | 50% | 1012 hPa | 0 mm | - | - | - |
| 1778150736 | 18.33° C | 45% | 1011.8 hPa | 0 mm | - | - | - |
| 1778150117 | 18.89° C | 45% | 1011.7 hPa | 0 mm | - | - | - |
| 1778149517 | 18.33° C | 47% | 1011.6 hPa | 0 mm | - | - | - |
| 1778148939 | 18.89° C | 46% | 1011.9 hPa | 0 mm | - | - | - |
| 1778148317 | 17.78° C | 51% | 1011.7 hPa | 0 mm | - | - | - |
| 1778147718 | 17.22° C | 54% | 1011.8 hPa | 0 mm | - | - | - |
| 1778147138 | 17.22° C | 55% | 1011.5 hPa | 0 mm | - | - | - |
| 1778146518 | 17.22° C | 57% | 1011.4 hPa | 0 mm | - | - | - |
| 1778145918 | 16.67° C | 58% | 1011.6 hPa | 0 mm | - | - | - |
| 1778145340 | 17.78° C | 52% | 1011.1 hPa | 0 mm | - | - | - |
| 1778144719 | 17.22° C | 57% | 1011.2 hPa | 0.25 mm | - | - | - |
| 1778144118 | 17.78° C | 56% | 1011.1 hPa | 0.25 mm | - | - | - |
| 1778143539 | 16.67° C | 59% | 1010.9 hPa | 0.25 mm | - | - | - |
| 1778142919 | 17.78° C | 55% | 1011 hPa | 0.25 mm | - | - | - |
| 1778142318 | 17.78° C | 55% | 1011.1 hPa | 0.25 mm | - | - | - |
* Rain latest hour (hover to see other rain measurements)
** Current wind speed in m/s (hover to see current wind gust speed)